Time;durP1;ratioP1;P1;durP2;ratioP2;P2;SDS_P1;SDS_P2;PMS_P1;PMS_P2;Temp;Humidity;BMP_temperature;BMP_pressure;BME280_temperature;BME280_humidity;BME280_pressure;Samples;Min_cycle;Max_cycle;Signal;HPM_P1;HPM_P2
2022/04/22 00:01:55;;;;;;;11.70;2.33;;;17.10;88.10;;;;;;6274765;22;20000;-64
2022/04/22 00:04:22;;;;;;;8.75;2.28;;;17.10;88.50;;;;;;6274210;22;20442;-65
2022/04/22 00:06:49;;;;;;;6.65;1.98;;;17.20;88.30;;;;;;6274432;22;19995;-64
2022/04/22 00:09:16;;;;;;;9.15;2.03;;;17.20;88.30;;;;;;6247591;22;20078;-65
2022/04/22 00:11:43;;;;;;;5.50;2.00;;;17.20;88.20;;;;;;6274452;22;20012;-65
2022/04/22 00:14:10;;;;;;;9.23;2.20;;;17.20;88.30;;;;;;6274574;22;20008;-65
2022/04/22 00:16:38;;;;;;;12.45;2.25;;;17.20;88.10;;;;;;6247519;22;20078;-65
2022/04/22 00:19:05;;;;;;;9.82;1.98;;;17.30;87.40;;;;;;6274535;22;20023;-65
2022/04/22 00:21:32;;;;;;;6.97;2.15;;;17.30;87.40;;;;;;6274235;22;20449;-65
2022/04/22 00:23:59;;;;;;;10.63;2.50;;;17.40;87.10;;;;;;6274553;22;20006;-65
2022/04/22 00:26:26;;;;;;;8.35;2.10;;;17.50;86.90;;;;;;6274355;22;20015;-65
2022/04/22 00:28:53;;;;;;;6.25;2.10;;;17.50;86.80;;;;;;6274299;22;20004;-65
2022/04/22 00:31:21;;;;;;;8.63;2.58;;;17.50;86.00;;;;;;6274337;22;20015;-65
2022/04/22 00:33:48;;;;;;;11.30;2.85;;;17.50;85.50;;;;;;6274412;22;20006;-65
2022/04/22 00:36:15;;;;;;;11.50;2.83;;;17.60;85.60;;;;;;6274000;22;20035;-65
2022/04/22 00:38:42;;;;;;;12.05;2.42;;;17.60;85.80;;;;;;6274482;22;20331;-65
2022/04/22 00:41:09;;;;;;;20.58;2.65;;;17.60;83.90;;;;;;6274639;22;20011;-65
2022/04/22 00:43:48;;;;;;;12.98;3.38;;;17.70;84.70;;;;;;6273884;22;20053;-65
2022/04/22 00:46:15;;;;;;;13.38;3.88;;;17.50;84.00;;;;;;6273840;22;20352;-65
2022/04/22 00:48:42;;;;;;;12.50;5.50;;;17.50;83.50;;;;;;6274270;22;20004;-65
2022/04/22 00:51:10;;;;;;;13.40;3.00;;;17.50;83.60;;;;;;6273749;22;20094;-65
2022/04/22 00:53:38;;;;;;;8.57;1.90;;;17.50;83.80;;;;;;6274077;22;20000;-65
2022/04/22 00:56:06;;;;;;;11.77;1.70;;;17.50;83.40;;;;;;6274783;22;20423;-65
2022/04/22 00:58:35;;;;;;;8.65;1.90;;;17.50;83.40;;;;;;6274377;22;20000;-65
2022/04/22 01:01:03;;;;;;;11.38;1.73;;;17.70;83.20;;;;;;6274166;22;20082;-66
2022/04/22 01:03:30;;;;;;;8.35;1.98;;;17.70;79.70;;;;;;6273918;22;20082;-65
2022/04/22 01:11:32;;;;;;;5.80;1.50;;;18.10;77.60;;;;;;6250836;22;20404;-66
2022/04/22 01:14:03;;;;;;;8.38;1.95;;;18.20;77.50;;;;;;6273659;22;20034;-65
2022/04/22 01:16:30;;;;;;;9.27;1.70;;;18.30;77.60;;;;;;6246985;22;20576;-65
2022/04/22 01:18:57;;;;;;;7.35;1.70;;;18.30;77.90;;;;;;6273551;22;20316;-65
2022/04/22 01:21:24;;;;;;;5.32;1.52;;;18.20;78.60;;;;;;6273640;22;20061;-65
2022/04/22 01:23:51;;;;;;;8.75;2.00;;;18.20;78.60;;;;;;6247185;22;20000;-65
2022/04/22 01:26:18;;;;;;;8.75;1.85;;;18.10;79.20;;;;;;6273569;22;20030;-65
2022/04/22 01:28:45;;;;;;;6.30;1.42;;;18.00;78.80;;;;;;6274113;22;20008;-65
2022/04/22 01:31:13;;;;;;;8.23;1.80;;;18.00;77.80;;;;;;6273785;22;20011;-65
2022/04/22 01:33:40;;;;;;;6.00;2.00;;;18.10;77.80;;;;;;6273709;22;20023;-65
2022/04/22 01:36:08;;;;;;;10.27;2.30;;;18.10;78.40;;;;;;6273908;22;20012;-66
2022/04/22 01:38:35;;;;;;;7.30;2.95;;;18.10;77.80;;;;;;6273437;22;20011;-65
2022/04/22 01:41:02;;;;;;;7.72;2.50;;;18.20;77.90;;;;;;6273581;22;20000;-65
2022/04/22 01:43:29;;;;;;;8.15;2.08;;;18.20;78.30;;;;;;6273531;22;20090;-65
2022/04/22 01:45:57;;;;;;;10.32;3.15;;;18.30;79.20;;;;;;6246689;22;20457;-65
2022/04/22 01:48:24;;;;;;;7.40;2.10;;;18.30;78.50;;;;;;6273770;22;20415;-66
2022/04/22 01:50:51;;;;;;;4.30;1.58;;;18.30;77.90;;;;;;6273233;22;20028;-66
2022/04/22 01:53:18;;;;;;;8.10;2.15;;;18.40;76.70;;;;;;6273628;22;20007;-66
2022/04/22 01:55:46;;;;;;;10.68;2.47;;;18.40;78.10;;;;;;6246786;22;20006;-67
2022/04/22 01:58:13;;;;;;;9.73;2.45;;;18.40;77.90;;;;;;6247062;22;20408;-65
2022/04/22 02:00:41;;;;;;;5.97;1.77;;;18.50;77.40;;;;;;6273250;22;20091;-66
2022/04/22 02:03:08;;;;;;;8.95;2.33;;;18.50;80.00;;;;;;6273743;22;19995;-65
2022/04/22 02:05:35;;;;;;;10.02;1.95;;;18.50;81.60;;;;;;6273275;22;20043;-65
2022/04/22 02:08:02;;;;;;;10.27;2.30;;;18.40;82.00;;;;;;6273617;22;20000;-65
2022/04/22 02:10:29;;;;;;;15.93;2.85;;;18.40;82.10;;;;;;6273169;22;20012;-65
2022/04/22 02:12:56;;;;;;;17.58;2.40;;;18.40;82.60;;;;;;6274018;22;20334;-65
2022/04/22 02:15:26;;;;;;;9.88;2.03;;;18.50;82.10;;;;;;6273524;22;20319;-66
2022/04/22 02:17:54;;;;;;;9.25;2.47;;;18.50;81.00;;;;;;6286507;22;20019;-65
2022/04/22 02:20:22;;;;;;;8.13;1.80;;;18.50;77.70;;;;;;6304278;22;20507;-65
2022/04/22 02:22:49;;;;;;;6.80;1.90;;;18.60;78.60;;;;;;6304750;22;20003;-65
2022/04/22 02:25:16;;;;;;;13.27;2.20;;;18.60;78.90;;;;;;6304346;22;20003;-65
2022/04/22 02:30:28;;;;;;;7.90;1.90;;;18.60;80.80;;;;;;6303763;22;20472;-65
2022/04/22 02:32:56;;;;;;;6.03;1.70;;;18.50;80.10;;;;;;6304432;22;20442;-66
2022/04/22 02:35:23;;;;;;;11.77;2.05;;;18.40;79.50;;;;;;6304471;22;20006;-66
2022/04/22 02:37:51;;;;;;;5.70;1.35;;;18.40;78.90;;;;;;6304613;22;20453;-66
2022/04/22 02:45:51;;;;;;;4.70;1.20;;;18.40;78.40;;;;;;6304927;22;20010;-66
2022/04/22 02:48:19;;;;;;;7.25;1.95;;;18.40;78.50;;;;;;6305076;22;20134;-66
2022/04/22 02:50:46;;;;;;;8.45;2.13;;;18.30;77.50;;;;;;6303202;22;20014;-66
2022/04/22 02:53:13;;;;;;;9.13;2.10;;;18.40;78.90;;;;;;6277123;22;20011;-66
2022/04/22 02:55:45;;;;;;;12.35;2.35;;;18.30;83.40;;;;;;6302731;22;20003;-65
2022/04/22 02:58:12;;;;;;;10.15;2.20;;;18.10;86.90;;;;;;6304138;22;20434;-65
2022/04/22 03:00:39;;;;;;;12.38;2.17;;;17.70;88.80;;;;;;6302496;22;20014;-66
2022/04/22 03:03:06;;;;;;;5.90;1.60;;;17.40;89.60;;;;;;6304214;22;20003;-65
2022/04/22 03:05:34;;;;;;;11.90;2.22;;;17.10;90.60;;;;;;6302919;22;20438;-65
2022/04/22 03:08:02;;;;;;;11.70;1.95;;;17.10;91.70;;;;;;6304814;22;20053;-65
2022/04/22 03:10:30;;;;;;;9.82;2.28;;;17.00;92.30;;;;;;6304113;22;20012;-65
2022/04/22 03:12:57;;;;;;;13.10;2.10;;;17.00;92.70;;;;;;6306128;22;20026;-65
2022/04/22 03:15:24;;;;;;;17.05;2.85;;;16.90;93.00;;;;;;6306093;22;20303;-65
2022/04/22 03:17:52;;;;;;;34.78;3.42;;;16.90;93.20;;;;;;6304320;22;20096;-65
2022/04/22 03:20:19;;;;;;;25.23;3.85;;;16.90;93.40;;;;;;6306198;22;20030;-65
2022/04/22 03:22:46;;;;;;;25.25;3.35;;;17.00;93.60;;;;;;6304824;22;20007;-65
2022/04/22 03:25:13;;;;;;;16.50;3.17;;;17.00;93.20;;;;;;6306089;22;19995;-65
2022/04/22 03:27:40;;;;;;;13.82;2.42;;;16.90;93.50;;;;;;6306721;22;20015;-65
2022/04/22 03:30:08;;;;;;;18.20;2.80;;;17.00;93.50;;;;;;6306494;22;20034;-65
2022/04/22 03:32:35;;;;;;;10.98;2.10;;;17.00;93.40;;;;;;6304497;22;20389;-65
2022/04/22 03:35:03;;;;;;;7.90;2.08;;;17.00;93.20;;;;;;6306140;22;19999;-65
2022/04/22 03:37:30;;;;;;;7.53;1.85;;;17.00;93.00;;;;;;6305931;22;20048;-65
2022/04/22 03:39:57;;;;;;;16.20;3.33;;;17.00;92.80;;;;;;6305886;22;20014;-65
2022/04/22 03:42:25;;;;;;;12.90;2.13;;;17.00;92.70;;;;;;6304804;22;19995;-65
2022/04/22 03:44:52;;;;;;;5.75;1.88;;;16.90;92.20;;;;;;6306377;22;20435;-65
2022/04/22 03:47:20;;;;;;;12.90;2.30;;;17.00;92.90;;;;;;6306253;22;20082;-65
2022/04/22 03:49:47;;;;;;;7.90;1.80;;;17.10;92.70;;;;;;6305810;22;20027;-65
2022/04/22 03:52:15;;;;;;;7.95;1.85;;;17.10;92.20;;;;;;6305872;22;20006;-65
2022/04/22 03:54:42;;;;;;;10.77;1.98;;;17.20;92.40;;;;;;6306337;22;20129;-66
2022/04/22 03:59:54;;;;;;;4.22;1.67;;;17.30;92.10;;;;;;6306072;22;20026;-65
2022/04/22 04:02:21;;;;;;;8.18;1.80;;;17.30;91.80;;;;;;6305820;22;20334;-65
2022/04/22 04:04:50;;;;;;;9.80;2.08;;;17.40;92.40;;;;;;6304417;22;20027;-66
2022/04/22 04:07:18;;;;;;;6.32;2.42;;;17.40;91.90;;;;;;6305980;22;20381;-66
2022/04/22 04:18:00;;;;;;;8.98;1.85;;;17.30;90.90;;;;;;6305380;22;20507;-66
2022/04/22 04:23:15;;;;;;;10.45;2.00;;;17.20;91.10;;;;;;6305812;22;20026;-66
2022/04/22 04:25:44;;;;;;;5.88;1.92;;;17.20;92.50;;;;;;6305749;22;20007;-65
2022/04/22 04:28:13;;;;;;;10.25;1.88;;;17.20;92.60;;;;;;6305046;22;20031;-68
2022/04/22 04:30:40;;;;;;;5.45;1.80;;;17.20;92.70;;;;;;6305478;22;20480;-64
2022/04/22 04:33:08;;;;;;;10.15;1.98;;;17.20;92.70;;;;;;6305606;22;20070;-64
2022/04/22 04:35:35;;;;;;;10.45;1.73;;;17.20;92.50;;;;;;6303760;22;20430;-67
2022/04/22 04:38:03;;;;;;;10.70;2.00;;;17.20;92.90;;;;;;6305186;22;20092;-63
2022/04/22 04:40:30;;;;;;;8.82;2.33;;;17.20;93.00;;;;;;6305378;22;20333;-63
2022/04/22 04:42:58;;;;;;;9.40;1.50;;;17.30;92.90;;;;;;6305362;22;20049;-63
2022/04/22 04:45:25;;;;;;;7.65;1.40;;;17.20;92.70;;;;;;6305545;22;20010;-64
2022/04/22 04:47:52;;;;;;;11.27;2.20;;;17.20;92.60;;;;;;6305135;22;20003;-66
2022/04/22 04:50:19;;;;;;;11.52;2.20;;;17.10;92.50;;;;;;6304859;22;20086;-66
2022/04/22 04:52:46;;;;;;;9.23;1.60;;;17.10;92.60;;;;;;6304693;22;19999;-66
2022/04/22 04:55:14;;;;;;;7.03;1.50;;;17.00;93.00;;;;;;6303762;22;20003;-66
2022/04/22 04:57:44;;;;;;;10.73;1.88;;;17.00;92.90;;;;;;6305397;22;19995;-65
2022/04/22 05:00:12;;;;;;;8.80;1.58;;;17.00;92.80;;;;;;6304912;22;20019;-66
2022/04/22 05:02:39;;;;;;;10.02;1.55;;;16.90;92.40;;;;;;6304640;22;20057;-65
2022/04/22 05:05:07;;;;;;;8.40;1.55;;;16.80;92.90;;;;;;6304933;22;20430;-66
2022/04/22 05:07:36;;;;;;;6.55;1.50;;;16.80;93.10;;;;;;6305397;22;20515;-66
2022/04/22 05:10:04;;;;;;;10.07;1.52;;;16.80;93.30;;;;;;6277569;22;20071;-65
2022/04/22 05:12:31;;;;;;;8.60;1.40;;;16.70;93.10;;;;;;6304835;22;20033;-65
2022/04/22 05:14:58;;;;;;;8.60;1.77;;;16.70;93.40;;;;;;6304531;22;20063;-65
2022/04/22 05:17:25;;;;;;;7.25;1.70;;;16.70;93.70;;;;;;6304758;22;20003;-65
2022/04/22 05:19:52;;;;;;;5.22;1.27;;;16.70;93.70;;;;;;6305170;22;20377;-64
2022/04/22 05:22:20;;;;;;;9.07;1.60;;;16.70;93.90;;;;;;6304615;22;19996;-65
2022/04/22 05:24:47;;;;;;;11.30;1.95;;;16.70;94.00;;;;;;6304360;22;20327;-65
2022/04/22 05:27:14;;;;;;;8.23;1.70;;;16.70;93.80;;;;;;6301081;22;19999;-65
2022/04/22 05:32:38;;;;;;;9.48;1.40;;;16.70;93.90;;;;;;6303546;22;20014;-65
2022/04/22 05:35:06;;;;;;;2.75;1.08;;;16.70;93.30;;;;;;6303403;22;20090;-64
2022/04/22 05:37:56;;;;;;;6.68;1.40;;;16.70;93.30;;;;;;6304641;22;20003;-65
2022/04/22 05:40:26;;;;;;;6.97;1.50;;;16.70;93.00;;;;;;6302814;22;20070;-64
2022/04/22 05:42:54;;;;;;;5.05;1.83;;;16.70;93.60;;;;;;6302614;22;20455;-64
2022/04/22 05:45:22;;;;;;;5.63;1.60;;;16.80;93.20;;;;;;6303363;22;20014;-64
2022/04/22 05:47:51;;;;;;;7.75;1.70;;;16.80;92.80;;;;;;6304317;22;20006;-64
2022/04/22 05:50:18;;;;;;;8.38;1.60;;;16.80;93.40;;;;;;6303135;22;20007;-64
2022/04/22 05:52:45;;;;;;;4.18;1.33;;;16.90;93.10;;;;;;6304281;22;20007;-64
2022/04/22 05:55:16;;;;;;;4.68;1.48;;;17.00;93.30;;;;;;6304261;22;20011;-64
2022/04/22 05:57:44;;;;;;;5.35;1.55;;;17.00;93.10;;;;;;6304542;22;20041;-64
2022/04/22 06:00:13;;;;;;;6.10;1.45;;;17.00;93.10;;;;;;6304160;22;20003;-63
2022/04/22 06:02:41;;;;;;;6.13;1.25;;;17.10;93.40;;;;;;6304028;22;20360;-64
2022/04/22 06:05:09;;;;;;;11.32;1.90;;;17.10;93.10;;;;;;6304221;22;20026;-64
2022/04/22 06:07:37;;;;;;;6.95;1.50;;;17.00;93.20;;;;;;6304129;22;20003;-64
2022/04/22 06:12:53;;;;;;;5.57;1.13;;;16.90;93.10;;;;;;6303804;22;20017;-63
2022/04/22 06:15:20;;;;;;;6.00;1.15;;;16.80;93.80;;;;;;6304150;22;20023;-64
2022/04/22 06:17:48;;;;;;;4.82;1.00;;;16.70;93.90;;;;;;6303762;22;20016;-64
2022/04/22 06:20:15;;;;;;;7.57;1.38;;;16.70;94.20;;;;;;6304005;22;20338;-65
2022/04/22 06:22:42;;;;;;;7.47;1.80;;;16.70;94.40;;;;;;6301853;22;20009;-64
2022/04/22 06:25:10;;;;;;;8.05;1.38;;;16.70;94.60;;;;;;6304097;22;20058;-64
2022/04/22 06:27:42;;;;;;;5.35;1.10;;;16.70;94.60;;;;;;6303938;22;19995;-64
2022/04/22 06:30:13;;;;;;;8.63;1.48;;;16.70;94.60;;;;;;6304404;22;20038;-64
2022/04/22 06:32:42;;;;;;;8.02;1.58;;;16.70;94.80;;;;;;6303514;22;20435;-64
2022/04/22 06:35:10;;;;;;;7.00;1.63;;;16.60;94.70;;;;;;6303260;22;20446;-65
2022/04/22 06:37:45;;;;;;;6.25;1.50;;;16.70;94.60;;;;;;6276479;22;20516;-65
2022/04/22 06:45:48;;;;;;;9.98;1.73;;;16.70;95.20;;;;;;6306314;22;20015;-65
2022/04/22 06:48:20;;;;;;;7.32;1.42;;;16.80;95.30;;;;;;6306466;22;20078;-64
2022/04/22 06:50:50;;;;;;;5.60;1.58;;;16.80;95.20;;;;;;6305801;22;20411;-64
2022/04/22 06:53:19;;;;;;;5.70;1.55;;;16.80;95.30;;;;;;6304723;22;19999;-65
2022/04/22 06:55:47;;;;;;;7.85;1.83;;;16.80;95.20;;;;;;6306276;22;19999;-64
2022/04/22 06:58:15;;;;;;;6.07;1.60;;;16.80;95.30;;;;;;6304319;22;19999;-64
2022/04/22 07:00:43;;;;;;;10.00;1.92;;;16.70;95.30;;;;;;6305785;22;20078;-65
2022/04/22 07:03:11;;;;;;;6.82;2.10;;;16.70;95.40;;;;;;6305695;22;20076;-65
2022/04/22 07:05:39;;;;;;;9.52;2.00;;;16.80;95.50;;;;;;6306002;22;20007;-65
2022/04/22 07:08:07;;;;;;;5.80;1.60;;;16.80;95.50;;;;;;6304684;22;19999;-65
2022/04/22 07:10:35;;;;;;;13.07;2.15;;;16.80;95.50;;;;;;6306514;22;20015;-64
2022/04/22 07:13:03;;;;;;;7.68;1.95;;;16.80;95.60;;;;;;6304315;22;20438;-64
2022/04/22 07:15:30;;;;;;;7.45;2.15;;;16.70;95.50;;;;;;6306142;22;20003;-64
2022/04/22 07:17:57;;;;;;;11.07;2.47;;;16.80;95.50;;;;;;6279247;22;20054;-64
2022/04/22 07:20:25;;;;;;;11.20;1.83;;;16.80;95.60;;;;;;6305666;22;20011;-64
2022/04/22 07:22:53;;;;;;;6.90;1.70;;;16.80;95.50;;;;;;6305699;22;19995;-65
2022/04/22 07:25:20;;;;;;;7.65;1.90;;;16.90;95.60;;;;;;6306266;22;20079;-65
2022/04/22 07:27:48;;;;;;;10.50;1.98;;;16.80;95.60;;;;;;6306643;22;20003;-65
2022/04/22 07:30:17;;;;;;;12.52;2.28;;;16.80;95.60;;;;;;6305434;22;20011;-64
2022/04/22 07:32:48;;;;;;;8.27;2.58;;;16.80;95.70;;;;;;6303228;22;20004;-65
2022/04/22 07:35:17;;;;;;;8.77;2.13;;;16.80;95.70;;;;;;6279759;22;20003;-65
2022/04/22 07:37:46;;;;;;;7.13;1.83;;;16.80;95.80;;;;;;6304197;22;20405;-64
2022/04/22 07:40:15;;;;;;;7.95;2.05;;;16.90;95.60;;;;;;6305856;22;20019;-64
2022/04/22 07:46:46;;;;;;;7.00;1.60;;;16.90;95.60;;;;;;6304030;22;20053;-65
2022/04/22 07:48:18;;;;;;;10.65;1.70;;;16.80;95.40;;;;;;6304788;22;20014;-65
2022/04/22 07:50:47;;;;;;;6.82;1.67;;;16.80;95.40;;;;;;6303774;22;20049;-65
2022/04/22 07:53:21;;;;;;;7.07;1.60;;;16.80;95.40;;;;;;6303825;22;20438;-66
2022/04/22 07:55:49;;;;;;;7.55;1.90;;;16.80;95.50;;;;;;6303979;22;20007;-66
2022/04/22 07:58:17;;;;;;;7.32;1.52;;;16.80;95.60;;;;;;6304362;22;20007;-64
2022/04/22 08:00:47;;;;;;;8.05;1.50;;;16.80;94.70;;;;;;6303996;22;20334;-65
2022/04/22 08:03:17;;;;;;;10.55;1.45;;;16.70;94.00;;;;;;6305482;22;20014;-65
2022/04/22 08:05:45;;;;;;;9.60;1.85;;;16.70;93.80;;;;;;6305462;22;20022;-66
2022/04/22 08:08:12;;;;;;;6.55;1.48;;;16.70;93.40;;;;;;6305499;22;20322;-66
2022/04/22 08:10:45;;;;;;;3.30;1.20;;;16.70;93.90;;;;;;6300571;22;20014;-67
2022/04/22 08:13:14;;;;;;;5.05;1.33;;;16.70;94.00;;;;;;6304586;22;20027;-66
2022/04/22 08:15:41;;;;;;;3.85;1.45;;;16.70;94.10;;;;;;6304894;22;20039;-66
2022/04/22 08:18:10;;;;;;;4.00;1.38;;;16.70;93.80;;;;;;6302595;22;20465;-66
2022/04/22 08:20:37;;;;;;;4.70;1.15;;;16.70;93.90;;;;;;6304857;22;20074;-67
2022/04/22 08:23:05;;;;;;;5.32;1.27;;;16.70;94.00;;;;;;6305339;22;20006;-66
2022/04/22 08:25:32;;;;;;;6.30;1.30;;;16.70;93.70;;;;;;6303743;22;20464;-67
2022/04/22 08:28:00;;;;;;;4.22;1.30;;;16.70;94.10;;;;;;6304394;22;20007;-66
2022/04/22 08:30:28;;;;;;;2.67;1.20;;;16.80;94.50;;;;;;6305154;22;20034;-66
2022/04/22 08:32:55;;;;;;;4.43;1.48;;;16.80;94.60;;;;;;6305181;22;20013;-66
2022/04/22 08:35:22;;;;;;;4.93;1.58;;;16.80;94.20;;;;;;6305685;22;20007;-66
2022/04/22 08:37:50;;;;;;;6.65;2.13;;;16.80;94.50;;;;;;6276037;22;19999;-66
2022/04/22 08:40:17;;;;;;;4.70;1.90;;;16.80;94.30;;;;;;6304483;22;20011;-66
2022/04/22 08:42:46;;;;;;;4.97;1.50;;;16.80;94.20;;;;;;6305131;22;20003;-66
2022/04/22 08:45:13;;;;;;;3.95;1.50;;;16.70;93.40;;;;;;6304178;22;20010;-66
2022/04/22 08:50:32;;;;;;;5.88;1.33;;;16.70;93.90;;;;;;6304692;22;20050;-66
2022/04/22 08:53:07;;;;;;;4.70;1.38;;;16.70;94.10;;;;;;6278490;22;20049;-66
2022/04/22 08:55:34;;;;;;;8.68;1.50;;;16.70;94.00;;;;;;6305754;22;20011;-66
2022/04/22 08:58:05;;;;;;;5.63;1.10;;;16.70;94.10;;;;;;6305250;22;19995;-66
2022/04/22 09:00:37;;;;;;;5.80;1.65;;;16.70;94.30;;;;;;6303568;22;20014;-66
2022/04/22 09:03:05;;;;;;;5.78;1.75;;;16.70;94.30;;;;;;6303696;22;20314;-66
2022/04/22 09:05:35;;;;;;;5.43;1.60;;;16.70;93.40;;;;;;6300890;22;20118;-66
2022/04/22 09:08:03;;;;;;;4.25;1.45;;;16.60;93.10;;;;;;6302267;22;20410;-66
2022/04/22 09:10:30;;;;;;;10.20;2.25;;;16.70;94.00;;;;;;6301838;22;20007;-66
2022/04/22 09:12:57;;;;;;;7.13;1.80;;;16.70;93.70;;;;;;6299783;22;20114;-66
2022/04/22 09:15:26;;;;;;;5.70;1.80;;;16.70;94.10;;;;;;6304483;22;20007;-66
2022/04/22 09:18:00;;;;;;;7.28;1.75;;;16.70;94.00;;;;;;6303839;22;20442;-67
2022/04/22 09:20:32;;;;;;;8.00;2.28;;;16.70;94.30;;;;;;6302929;22;20083;-67
2022/04/22 09:23:00;;;;;;;7.80;1.70;;;16.70;94.60;;;;;;6302678;22;20087;-67
2022/04/22 09:25:28;;;;;;;7.75;1.60;;;16.70;94.60;;;;;;6302932;22;20000;-67
2022/04/22 09:28:07;;;;;;;12.23;1.98;;;16.70;94.70;;;;;;6304571;22;19999;-67
2022/04/22 09:30:35;;;;;;;4.40;1.50;;;16.70;94.70;;;;;;6303378;22;20089;-66
2022/04/22 09:33:03;;;;;;;6.82;1.77;;;16.70;94.90;;;;;;6304290;22;20003;-67
2022/04/22 09:42:38;;;;;;;7.55;1.95;;;16.70;95.00;;;;;;6303245;22;20071;-66
2022/04/22 09:43:52;;;;;;;12.70;2.28;;;16.70;95.30;;;;;;6303619;22;20372;-67
2022/04/22 09:46:27;;;;;;;10.27;2.00;;;16.70;95.40;;;;;;6304813;22;20036;-67
2022/04/22 09:48:56;;;;;;;8.35;2.20;;;16.70;95.50;;;;;;6303115;22;20003;-67
2022/04/22 09:51:32;;;;;;;10.35;2.00;;;16.60;95.50;;;;;;6303027;22;20018;-67
2022/04/22 09:54:14;;;;;;;8.55;2.00;;;16.70;95.60;;;;;;6304307;22;20083;-66
2022/04/22 13:30:55;;;;;;;9.05;1.95;;;16.20;97.10;;;;;;6282341;22;20145;-67
2022/04/22 13:33:23;;;;;;;8.77;1.60;;;16.20;97.10;;;;;;6273639;22;20011;-67
2022/04/22 13:35:50;;;;;;;4.75;1.48;;;16.20;97.10;;;;;;6273177;22;19999;-67
2022/04/22 13:38:18;;;;;;;7.32;1.55;;;16.20;97.10;;;;;;6247092;22;20008;-67
2022/04/22 13:40:45;;;;;;;10.43;1.60;;;16.20;97.10;;;;;;6273607;22;19999;-65
2022/04/22 13:43:12;;;;;;;5.60;1.40;;;16.10;97.10;;;;;;6273222;22;20061;-65
2022/04/22 13:53:55;;;;;;;5.68;1.50;;;16.20;97.20;;;;;;6273905;22;20346;-65
2022/04/22 13:56:22;;;;;;;8.20;1.60;;;16.10;97.20;;;;;;6273833;22;20544;-66
2022/04/22 13:58:49;;;;;;;10.93;1.65;;;16.20;97.30;;;;;;6273365;22;20430;-65
2022/04/22 14:01:16;;;;;;;5.53;2.10;;;16.10;97.20;;;;;;6272790;22;20030;-66
2022/04/22 14:03:44;;;;;;;5.78;1.90;;;16.10;97.30;;;;;;6273496;22;20300;-66
2022/04/22 14:06:11;;;;;;;4.95;1.80;;;16.20;97.20;;;;;;6273470;22;20034;-66
2022/04/22 14:08:38;;;;;;;6.88;1.67;;;16.20;97.20;;;;;;6273559;22;20457;-66
2022/04/22 14:11:07;;;;;;;7.55;1.58;;;16.20;97.20;;;;;;6273098;22;20007;-66
2022/04/22 14:13:35;;;;;;;5.63;1.60;;;16.20;97.20;;;;;;6246056;22;20127;-66
2022/04/22 14:16:03;;;;;;;5.20;1.70;;;16.10;97.20;;;;;;6273065;22;20008;-66
2022/04/22 14:18:35;;;;;;;5.68;1.40;;;16.10;97.20;;;;;;6273900;22;20046;-66
2022/04/22 14:21:03;;;;;;;6.78;1.85;;;16.10;97.20;;;;;;6273670;22;20011;-66
2022/04/22 14:23:30;;;;;;;5.47;1.75;;;16.20;97.10;;;;;;6273301;22;20061;-66
2022/04/22 14:25:57;;;;;;;5.95;1.70;;;16.20;97.20;;;;;;6274036;22;20315;-66
2022/04/22 14:28:25;;;;;;;6.55;2.03;;;16.10;97.20;;;;;;6273692;22;19996;-66
2022/04/22 19:42:23;;;;;;;10.25;3.97;;;15.70;96.90;;;;;;6283297;22;20072;-67
2022/04/22 19:44:51;;;;;;;5.28;3.78;;;15.70;96.90;;;;;;6306248;22;19999;-65
2022/04/22 19:47:18;;;;;;;8.70;3.97;;;15.70;96.90;;;;;;6306342;22;20049;-65
2022/04/22 19:49:45;;;;;;;6.13;3.78;;;15.70;96.80;;;;;;6305485;22;19995;-66
2022/04/22 19:52:12;;;;;;;5.82;4.40;;;15.70;96.90;;;;;;6306288;22;20011;-66
2022/04/22 19:54:40;;;;;;;9.48;4.50;;;15.70;96.90;;;;;;6279456;22;20074;-64
2022/04/22 19:57:09;;;;;;;6.43;4.35;;;15.70;96.90;;;;;;6306036;22;20018;-67
2022/04/22 19:59:36;;;;;;;7.30;4.13;;;15.60;96.80;;;;;;6279193;22;20003;-66
2022/04/22 20:02:03;;;;;;;7.20;4.20;;;15.60;96.70;;;;;;6305988;22;20004;-64
2022/04/22 20:04:31;;;;;;;5.45;4.35;;;15.60;96.70;;;;;;6305881;22;20019;-64
2022/04/22 20:06:58;;;;;;;6.15;4.30;;;15.60;96.70;;;;;;6306270;22;20000;-64
2022/04/22 20:09:26;;;;;;;9.23;4.57;;;15.60;96.70;;;;;;6306682;22;20022;-64
2022/04/22 20:11:54;;;;;;;7.80;4.50;;;15.60;96.70;;;;;;6305919;22;20335;-64
2022/04/22 20:14:24;;;;;;;5.10;4.07;;;15.50;96.70;;;;;;6278258;22;20003;-64
2022/04/22 20:16:54;;;;;;;6.38;4.72;;;15.60;96.70;;;;;;6305938;22;20031;-64
2022/04/22 20:19:21;;;;;;;;;;;15.60;96.60;;;;;;6306566;22;20006;-64
2022/04/22 20:21:48;;;;;;;5.60;4.38;;;15.50;96.50;;;;;;6305704;22;19899;-66
2022/04/22 20:24:15;;;;;;;8.13;4.63;;;15.50;96.50;;;;;;6306161;22;20522;-66
2022/04/22 20:26:43;;;;;;;8.52;4.60;;;15.40;96.50;;;;;;6305535;22;20000;-66
2022/04/22 20:29:11;;;;;;;5.95;4.38;;;15.40;96.50;;;;;;6305924;22;20018;-67
2022/04/22 20:31:38;;;;;;;5.93;4.22;;;15.40;96.50;;;;;;6305991;22;20393;-66
2022/04/22 20:34:05;;;;;;;7.22;4.82;;;15.40;96.50;;;;;;6305946;22;20003;-66
2022/04/22 20:42:03;;;;;;;9.23;5.15;;;15.40;96.60;;;;;;6274723;22;20015;-67
2022/04/22 20:44:31;;;;;;;12.00;4.82;;;15.40;96.50;;;;;;6222560;22;20010;-65
2022/04/22 20:46:58;;;;;;;11.95;5.10;;;15.40;96.50;;;;;;6274449;22;20031;-64
2022/04/22 20:49:25;;;;;;;7.65;4.70;;;15.30;96.40;;;;;;6274370;22;20011;-66
2022/04/22 20:51:53;;;;;;;5.80;5.18;;;15.40;96.50;;;;;;6274796;22;20087;-66
2022/04/22 20:54:20;;;;;;;8.38;4.80;;;15.30;96.50;;;;;;6247817;22;20022;-66
2022/04/22 20:56:47;;;;;;;7.88;4.63;;;15.30;96.50;;;;;;6248113;22;20008;-66
2022/04/22 20:59:14;;;;;;;8.13;4.97;;;15.30;96.50;;;;;;6247415;22;20406;-66
2022/04/22 21:01:42;;;;;;;8.35;4.35;;;15.30;96.50;;;;;;6273969;22;20000;-66
2022/04/22 21:04:09;;;;;;;7.45;4.43;;;15.30;96.50;;;;;;6222512;22;20070;-66
2022/04/22 21:06:37;;;;;;;8.23;5.00;;;15.30;96.50;;;;;;6274579;22;20094;-66
2022/04/22 21:09:07;;;;;;;5.95;4.30;;;15.30;96.50;;;;;;6274463;22;20007;-66
2022/04/22 21:11:37;;;;;;;12.02;4.75;;;15.30;96.60;;;;;;6248068;22;20012;-66
2022/04/22 21:14:04;;;;;;;8.40;4.22;;;15.30;96.50;;;;;;6274629;22;20082;-66
2022/04/22 21:16:32;;;;;;;6.88;5.00;;;15.30;96.60;;;;;;6247248;22;20003;-66
2022/04/22 21:19:00;;;;;;;8.15;5.45;;;15.30;96.50;;;;;;6274181;22;20339;-67
2022/04/22 21:21:28;;;;;;;6.75;5.05;;;15.30;96.50;;;;;;6273874;22;19999;-64
2022/04/22 21:23:55;;;;;;;9.98;5.50;;;15.40;96.50;;;;;;6274536;22;20350;-64
2022/04/22 21:26:22;;;;;;;8.55;5.38;;;15.40;96.60;;;;;;6274413;22;20007;-66
2022/04/22 21:28:50;;;;;;;9.50;5.32;;;15.40;96.60;;;;;;6274454;22;20378;-66
2022/04/22 21:31:17;;;;;;;6.43;5.13;;;15.40;96.60;;;;;;6273765;22;20012;-66
2022/04/22 21:33:45;;;;;;;9.25;5.78;;;15.50;96.70;;;;;;6274207;22;20446;-67
2022/04/22 21:36:13;;;;;;;8.93;5.38;;;15.50;96.80;;;;;;6274250;22;20010;-66
2022/04/22 21:38:40;;;;;;;9.45;5.70;;;15.50;96.70;;;;;;6288297;22;20011;-66
2022/04/22 21:41:07;;;;;;;8.93;5.53;;;15.50;96.70;;;;;;6277673;22;20307;-67
2022/04/22 21:43:36;;;;;;;7.88;5.28;;;15.50;96.70;;;;;;6252602;22;20358;-67
2022/04/22 21:46:03;;;;;;;7.65;5.50;;;15.60;96.80;;;;;;6304973;22;20007;-67
2022/04/22 21:48:30;;;;;;;8.32;5.18;;;15.60;96.70;;;;;;6305553;22;20347;-67
2022/04/22 21:50:57;;;;;;;8.65;5.40;;;15.60;96.80;;;;;;6277886;22;20106;-67
2022/04/22 21:53:25;;;;;;;5.65;5.07;;;15.70;96.80;;;;;;6277891;22;20200;-66
2022/04/22 21:55:52;;;;;;;8.05;5.22;;;15.70;96.80;;;;;;6278083;22;20013;-67
2022/04/22 21:58:20;;;;;;;7.75;5.25;;;15.70;96.70;;;;;;6304903;22;20065;-66
2022/04/22 22:00:54;;;;;;;7.50;5.22;;;15.70;96.80;;;;;;6305228;22;19999;-67
2022/04/22 22:03:23;;;;;;;10.45;5.15;;;15.70;96.80;;;;;;6278047;22;20344;-66
2022/04/22 22:05:51;;;;;;;9.18;5.05;;;15.70;96.80;;;;;;6277694;22;20018;-67
2022/04/22 22:08:19;;;;;;;5.82;4.85;;;15.80;96.80;;;;;;6304733;22;19995;-65
2022/04/22 22:11:02;;;;;;;5.22;4.28;;;15.80;96.90;;;;;;6304264;22;20385;-67
2022/04/22 22:13:39;;;;;;;5.88;4.45;;;15.90;97.00;;;;;;6304597;22;20492;-65
2022/04/22 22:16:11;;;;;;;8.68;4.88;;;16.00;97.10;;;;;;6277343;22;20560;-64
2022/04/22 22:18:40;;;;;;;8.13;4.60;;;16.00;97.00;;;;;;6227478;22;20000;-65
2022/04/22 22:21:08;;;;;;;7.25;4.82;;;16.00;97.00;;;;;;6304259;22;20862;-64
2022/04/22 22:23:35;;;;;;;8.90;4.85;;;16.10;97.10;;;;;;6304748;22;20679;-65
2022/04/22 22:26:03;;;;;;;8.30;4.35;;;16.10;97.10;;;;;;6277236;22;20003;-67
2022/04/22 22:28:31;;;;;;;10.07;5.03;;;16.20;97.00;;;;;;6304758;22;20000;-64
2022/04/22 22:30:58;;;;;;;6.78;4.70;;;16.20;97.10;;;;;;6304723;22;20015;-65
2022/04/22 22:33:25;;;;;;;8.85;4.47;;;16.20;97.00;;;;;;6305066;22;20007;-64
2022/04/22 22:35:52;;;;;;;6.00;3.60;;;16.20;97.00;;;;;;6304757;22;20013;-67
2022/04/22 22:38:19;;;;;;;7.10;3.50;;;16.30;97.10;;;;;;6277408;22;20011;-66
2022/04/22 22:40:47;;;;;;;4.53;3.15;;;16.30;97.10;;;;;;6304833;22;20011;-67